Fruitland, WA

8:45 PM PDT on September 01, 2014 (GMT -0700)
Seven Bays | Change Station
CLOSE
Current Station
Personal Weather Station
Location: Seven Bays, WA
Elevation: 1332 ft
Nearby Weather Stations

Elev 1332 ft 47.85 °N, 118.34 °W | Updated 13 seconds ago

Clear
Clear
68.5 °F
Feels Like 68.5 °F
N
0.0
Wind Variable Wind from SSW
Gusts 0.0 mph

Today
High -- | Low -- °F
--% Chance of Precip.
Yesterday
High -- | Low -- °F
Precip. -- in
6:10 AM 7:33 PM
Waxing Crescent, 47% visible
Pressure 29.94 in
Visibility 10.0 miles
Clouds Clear
Dew Point 46 °F
Humidity 44%
Rainfall 0.00 in
Snow Depth Not available.
UV 0 out of 12
Pollen 6.50 out of 12
PM2.5 Good
Flu Activity Not available.
METAR KDEW 020253Z AUTO 20007KT 10SM CLR 18/03 A2995 RMK AO2 SLP137 T01830028 55004

More Conditions Fewer Conditions

Pressure 29.94 in
Visibility 10.0 miles
Clouds Clear
Dew Point 46 °F
Humidity 44%
Rainfall 0.00 in
Snow Depth Not available.
UV 0 out of 12
Pollen 6.50 out of 12
PM2.5 Good
Flu Activity Not available.
METAR KDEW 020253Z AUTO 20007KT 10SM CLR 18/03 A2995 RMK AO2 SLP137 T01830028 55004

More Conditions Fewer Conditions

10-Day Weather Forecast

Almanac

Astronomy

Sep. 01, 2014 Rise Set
Actual Time 6:10 AM PDT 7:33 PM PDT
Civil Twilight 5:38 AM PDT 8:05 PM PDT
Nautical Twilight 4:59 AM PDT 8:44 PM PDT
Astronomical Twilight 4:17 AM PDT 9:26 PM PDT
Moon 1:32 PM PDT (9/1) 11:07 PM PDT (9/1)
Length of Visible Light 14h 27m
Length of Day
13h 22m
Tomorrow will be 3m 22s shorter.
Waxing Crescent, 47% of the Moon is Illuminated
Today
Waxing Crescent
Sep 2
First Quarter
Sep 8
Full
Sep 15
Last Quarter
Sep 24
New

Today's Extremes

State Highs State Lows

Community

WunderPhotos

Upload Photos

1,749,557 photos uploaded!

WunderBlogs® & News

Nearby

Air Quality

  Air Quality AQ Index Pollutant
Yesterday Good
OZONE
Yesterday Good
PM10
Current Good
PM2.5
Monday Good
PM10
Tuesday Good
PM2.5

Snow Depth

Station Depth Elevation
Moses Mountain 1 in 5300 ft
Quartz Peak 1 in 4700 ft
Sentinel Butte 0 in 4920 ft
Trough 0 in 5300 ft
Upper Wheeler 0 in 4400 ft

Earthquake Activity

City Distance Mag. Time & Date
No recent earthquake activity has been reported nearby.
Minimum magnitude displayed is 2.5.

Coastal Water Temperatures

Place Temperature
No Stations Reporting

Nearby Weather Stations